createdAt,value
2023-01-20T00:01:09.827Z,20.30
2023-01-20T00:03:36.848Z,20.93
2023-01-20T00:06:03.596Z,19.57
2023-01-20T00:08:30.160Z,20.53
2023-01-20T00:10:56.966Z,18.67
2023-01-20T00:13:23.619Z,18.57
2023-01-20T00:15:50.151Z,17.20
2023-01-20T00:18:16.829Z,20.40
2023-01-20T00:20:43.949Z,20.53
2023-01-20T00:23:11.003Z,20.43
2023-01-20T00:25:37.642Z,21.83
2023-01-20T00:28:04.990Z,21.10
2023-01-20T00:30:32.373Z,22.37
2023-01-20T00:33:00.335Z,22.30
2023-01-20T00:35:28.463Z,21.27
2023-01-20T00:37:55.585Z,24.03
2023-01-20T00:40:22.504Z,22.83
2023-01-20T00:42:49.325Z,23.27
2023-01-20T00:45:16.133Z,20.30
2023-01-20T00:47:42.632Z,21.40
2023-01-20T00:50:09.804Z,23.87
2023-01-20T00:52:36.437Z,23.37
2023-01-20T00:55:03.045Z,23.10
2023-01-20T00:57:29.503Z,22.20
2023-01-20T00:59:56.069Z,26.00
2023-01-20T01:02:22.526Z,25.60
2023-01-20T01:04:50.729Z,26.10
2023-01-20T01:07:18.560Z,26.70
2023-01-20T01:09:45.453Z,25.70
2023-01-20T01:12:11.944Z,24.00
2023-01-20T01:14:38.325Z,25.00
2023-01-20T01:17:04.799Z,23.73
2023-01-20T01:19:31.239Z,23.93
2023-01-20T01:21:57.753Z,26.47
2023-01-20T01:24:24.212Z,26.63
2023-01-20T01:26:52.945Z,24.27
2023-01-20T01:29:19.389Z,25.90
2023-01-20T01:31:45.873Z,23.87
2023-01-20T01:34:12.354Z,25.43
2023-01-20T01:36:38.905Z,26.80
2023-01-20T01:39:05.325Z,30.30
2023-01-20T01:41:31.967Z,27.23
2023-01-20T01:44:01.385Z,26.30
2023-01-20T01:46:27.906Z,26.23
2023-01-20T01:48:54.771Z,24.97
2023-01-20T01:51:26.047Z,26.40
2023-01-20T01:53:59.925Z,31.80
2023-01-20T01:56:27.567Z,26.27
2023-01-20T01:58:56.892Z,26.00
2023-01-20T02:01:23.635Z,27.13
2023-01-20T02:04:21.892Z,29.33
2023-01-20T02:06:51.273Z,28.23
2023-01-20T02:09:18.592Z,27.83
2023-01-20T02:11:58.102Z,28.40
2023-01-20T02:14:29.611Z,27.47
2023-01-20T02:17:02.140Z,30.77
2023-01-20T02:19:50.899Z,28.43
2023-01-20T02:22:29.948Z,26.03
2023-01-20T02:25:11.038Z,28.00
2023-01-20T02:28:10.247Z,27.07
2023-01-20T02:30:43.345Z,27.77
2023-01-20T02:33:13.581Z,29.20
2023-01-20T02:35:49.996Z,28.37
2023-01-20T02:38:28.024Z,30.70
2023-01-20T02:41:12.889Z,28.13
2023-01-20T02:43:47.169Z,33.73
2023-01-20T02:46:33.182Z,31.83
2023-01-20T02:49:12.734Z,30.27
2023-01-20T02:51:47.814Z,27.37
2023-01-20T02:54:17.076Z,27.20
2023-01-20T02:56:43.898Z,31.83
2023-01-20T02:59:12.459Z,30.80
2023-01-20T03:01:48.704Z,30.73
2023-01-20T03:04:20.073Z,31.10
2023-01-20T03:06:50.020Z,29.00
2023-01-20T03:09:21.804Z,31.33
2023-01-20T03:11:51.716Z,35.30
2023-01-20T03:14:18.242Z,31.07
2023-01-20T03:16:48.175Z,30.77
2023-01-20T03:19:16.426Z,34.03
2023-01-20T03:21:43.525Z,37.00
2023-01-20T03:24:10.715Z,41.63
2023-01-20T03:26:38.315Z,38.80
2023-01-20T03:29:06.952Z,35.67
2023-01-20T03:31:38.459Z,36.40
2023-01-20T03:34:11.079Z,36.97
2023-01-20T03:36:38.320Z,37.63
2023-01-20T03:39:05.213Z,41.73
2023-01-20T03:42:07.179Z,43.53
2023-01-20T03:45:01.630Z,43.30
2023-01-20T03:47:40.910Z,40.00
2023-01-20T03:50:21.227Z,42.50
2023-01-20T03:53:01.802Z,42.93
2023-01-20T03:55:37.421Z,36.47
2023-01-20T03:58:17.389Z,44.50
2023-01-20T04:00:46.754Z,45.07
2023-01-20T04:03:26.447Z,45.63
2023-01-20T04:05:53.311Z,42.17
2023-01-20T04:08:22.435Z,40.60
2023-01-20T04:10:50.203Z,46.00
2023-01-20T04:13:16.924Z,47.23
2023-01-20T04:15:46.631Z,48.63
2023-01-20T04:18:16.120Z,43.53
2023-01-20T04:20:44.802Z,43.43
2023-01-20T04:23:37.951Z,43.27
2023-01-20T04:26:04.548Z,48.90
2023-01-20T04:28:32.177Z,45.30
2023-01-20T04:30:58.905Z,42.33
2023-01-20T04:33:25.417Z,47.93
2023-01-20T04:35:52.767Z,45.63
2023-01-20T04:38:19.227Z,47.07
2023-01-20T04:40:45.631Z,49.33
2023-01-20T04:43:12.418Z,46.63
2023-01-20T04:45:41.199Z,51.10
2023-01-20T04:48:08.673Z,50.90
2023-01-20T04:50:41.580Z,45.47
2023-01-20T04:53:11.462Z,42.37
2023-01-20T04:55:37.852Z,48.43
2023-01-20T04:58:04.503Z,46.90
2023-01-20T05:00:30.920Z,44.30
2023-01-20T05:02:58.497Z,54.20
2023-01-20T05:05:25.179Z,50.20
2023-01-20T05:07:53.547Z,60.53
2023-01-20T05:10:21.141Z,60.53
2023-01-20T05:12:47.855Z,63.40
2023-01-20T05:15:14.855Z,54.27
2023-01-20T05:17:41.756Z,51.77
2023-01-20T05:20:09.224Z,52.77
2023-01-20T05:22:35.962Z,50.93
2023-01-20T05:25:02.578Z,55.50
2023-01-20T05:27:29.032Z,54.13
2023-01-20T05:29:55.481Z,54.77
2023-01-20T05:32:22.176Z,64.07
2023-01-20T05:34:48.635Z,54.70
2023-01-20T05:37:17.767Z,48.23
2023-01-20T05:39:44.534Z,52.07
2023-01-20T05:42:11.219Z,53.07
2023-01-20T05:44:38.350Z,57.60
2023-01-20T05:47:04.906Z,53.23
2023-01-20T05:49:31.365Z,53.07
2023-01-20T05:51:57.935Z,58.80
2023-01-20T05:54:24.551Z,51.20
2023-01-20T05:56:51.101Z,58.93
2023-01-20T05:59:17.777Z,57.60
2023-01-20T06:01:44.235Z,62.40
2023-01-20T06:04:10.642Z,59.17
2023-01-20T06:06:37.848Z,60.23
2023-01-20T06:09:04.294Z,63.70
2023-01-20T06:11:30.690Z,63.77
2023-01-20T06:13:57.131Z,72.07
2023-01-20T06:16:23.592Z,71.63
2023-01-20T06:18:50.160Z,58.30
2023-01-20T06:21:16.653Z,63.10
2023-01-20T06:23:43.111Z,55.67
2023-01-20T06:26:13.365Z,73.90
2023-01-20T06:28:39.945Z,68.77
2023-01-20T06:31:11.529Z,58.80
2023-01-20T06:33:38.087Z,59.07
2023-01-20T06:36:05.590Z,51.83
2023-01-20T06:38:33.857Z,53.70
2023-01-20T06:41:02.766Z,56.37
2023-01-20T06:43:30.301Z,56.00
2023-01-20T06:46:01.574Z,52.63
2023-01-20T06:48:28.283Z,49.93
2023-01-20T06:51:00.565Z,57.17
2023-01-20T06:53:26.987Z,55.43
2023-01-20T06:55:56.667Z,65.40
2023-01-20T06:58:24.945Z,52.67
2023-01-20T07:00:52.607Z,53.00
2023-01-20T07:03:19.359Z,53.13
2023-01-20T07:05:55.178Z,48.67
2023-01-20T07:08:21.813Z,55.43
2023-01-20T07:10:48.181Z,49.87
2023-01-20T07:13:14.645Z,49.83
2023-01-20T07:15:41.337Z,49.57
2023-01-20T07:18:07.914Z,56.70
2023-01-20T07:20:34.329Z,55.40
2023-01-20T07:23:01.771Z,54.13
2023-01-20T07:25:28.448Z,52.30
2023-01-20T07:27:55.087Z,52.07
2023-01-20T07:30:21.473Z,51.03
2023-01-20T07:32:48.085Z,60.10
2023-01-20T07:35:14.734Z,60.27
2023-01-20T07:37:41.250Z,57.73
2023-01-20T07:40:08.823Z,56.03
2023-01-20T07:42:38.880Z,54.80
2023-01-20T07:45:06.097Z,54.57
2023-01-20T07:47:32.522Z,51.93
2023-01-20T07:49:58.902Z,49.67
2023-01-20T07:52:25.350Z,54.67
2023-01-20T07:54:51.815Z,50.50
2023-01-20T07:57:18.283Z,52.10
2023-01-20T07:59:44.716Z,54.50
2023-01-20T08:02:11.110Z,52.60
2023-01-20T08:04:37.541Z,62.07
2023-01-20T08:07:04.038Z,57.70
2023-01-20T08:09:30.437Z,57.40
2023-01-20T08:11:56.935Z,53.20
2023-01-20T08:14:23.462Z,57.63
2023-01-20T08:16:49.971Z,54.50
2023-01-20T08:19:16.495Z,53.37
2023-01-20T08:21:42.890Z,53.40
2023-01-20T08:24:10.226Z,53.40
2023-01-20T08:26:36.842Z,51.17
2023-01-20T08:29:05.509Z,47.07
2023-01-20T08:31:32.235Z,51.67
2023-01-20T08:33:59.199Z,52.10
2023-01-20T08:36:31.993Z,53.00
2023-01-20T08:39:00.118Z,52.87
2023-01-20T08:41:29.626Z,53.93
2023-01-20T08:43:58.697Z,51.97
2023-01-20T08:46:25.306Z,55.57
2023-01-20T08:48:51.935Z,59.00
2023-01-20T08:51:24.629Z,57.97
2023-01-20T08:53:51.693Z,49.50
2023-01-20T08:56:18.907Z,50.17
2023-01-20T08:58:45.674Z,52.07
2023-01-20T09:01:16.964Z,49.27
2023-01-20T09:03:55.418Z,48.23
2023-01-20T09:06:31.517Z,53.10
2023-01-20T09:08:58.151Z,55.70
2023-01-20T09:11:26.279Z,52.87
2023-01-20T09:13:53.945Z,57.43
2023-01-20T09:16:20.562Z,62.60
2023-01-20T09:18:47.262Z,57.90
2023-01-20T09:21:13.745Z,56.07
2023-01-20T09:23:41.089Z,61.27
2023-01-20T09:26:07.774Z,57.80
2023-01-20T09:28:34.943Z,50.70
2023-01-20T09:31:04.656Z,50.57
2023-01-20T09:33:32.493Z,56.23
2023-01-20T09:35:59.739Z,57.20
2023-01-20T09:38:45.848Z,53.07
2023-01-20T09:41:44.905Z,57.60
2023-01-20T09:44:53.940Z,63.63
2023-01-20T09:47:32.449Z,62.50
2023-01-20T09:50:23.864Z,54.30
2023-01-20T09:53:03.904Z,60.03
2023-01-20T09:55:50.890Z,62.13
2023-01-20T09:58:17.320Z,62.33
2023-01-20T10:00:48.798Z,59.13
2023-01-20T10:03:36.906Z,53.57
2023-01-20T10:06:17.721Z,55.43
2023-01-20T10:09:05.523Z,51.77
2023-01-20T10:11:41.888Z,55.53
2023-01-20T10:14:18.500Z,49.80
2023-01-20T10:16:55.099Z,48.80
2023-01-20T10:19:35.501Z,45.60
2023-01-20T10:22:11.287Z,42.37
2023-01-20T10:24:44.611Z,46.43
2023-01-20T10:27:11.024Z,49.17
2023-01-20T10:29:39.615Z,54.23
2023-01-20T10:32:13.443Z,49.40
2023-01-20T10:34:47.367Z,48.20
2023-01-20T10:37:15.521Z,52.90
2023-01-20T10:39:53.325Z,48.73
2023-01-20T10:42:20.205Z,47.63
2023-01-20T10:44:48.436Z,46.73
2023-01-20T10:47:26.113Z,48.63
2023-01-20T10:50:32.403Z,48.13
2023-01-20T10:53:14.108Z,48.17
2023-01-20T10:55:52.633Z,48.80
2023-01-20T10:58:38.141Z,48.00
2023-01-20T11:01:08.998Z,48.97
2023-01-20T11:03:38.123Z,48.57
2023-01-20T11:06:06.197Z,45.60
2023-01-20T11:08:32.820Z,51.17
2023-01-20T11:11:09.131Z,51.60
2023-01-20T11:13:35.643Z,50.47
2023-01-20T11:16:05.077Z,55.73
2023-01-20T11:18:32.958Z,55.53
2023-01-20T11:21:04.806Z,54.47
2023-01-20T11:24:00.670Z,52.67
2023-01-20T11:26:37.971Z,52.57
2023-01-20T11:29:10.219Z,56.70
2023-01-20T11:31:41.709Z,50.67
2023-01-20T11:34:28.417Z,56.40
2023-01-20T11:37:17.339Z,56.93
2023-01-20T11:39:50.254Z,52.90
2023-01-20T11:42:23.600Z,57.07
2023-01-20T11:44:56.111Z,56.87
2023-01-20T11:47:31.336Z,59.03
2023-01-20T11:50:04.056Z,63.73
2023-01-20T11:52:35.639Z,59.13
2023-01-20T11:55:12.159Z,80.50
2023-01-20T11:57:39.740Z,63.20
2023-01-20T12:00:27.130Z,56.93
2023-01-20T12:03:02.518Z,57.70
2023-01-20T12:05:37.456Z,56.00
2023-01-20T12:08:05.004Z,51.77
2023-01-20T12:10:35.141Z,56.63
2023-01-20T12:13:17.219Z,57.57
2023-01-20T12:15:52.885Z,57.83
2023-01-20T12:18:29.723Z,62.07
2023-01-20T12:20:59.477Z,60.73
2023-01-20T12:23:46.339Z,57.87
2023-01-20T12:26:14.376Z,63.20
2023-01-20T12:29:03.084Z,58.67
2023-01-20T12:31:29.909Z,56.00
2023-01-20T12:34:04.922Z,62.43
2023-01-20T12:36:52.431Z,56.03
2023-01-20T12:39:40.165Z,59.70
2023-01-20T12:42:06.828Z,55.43
2023-01-20T12:44:58.644Z,62.63
2023-01-20T12:47:56.097Z,62.90
2023-01-20T12:50:38.212Z,62.90
2023-01-20T12:53:27.007Z,60.00
2023-01-20T12:56:00.171Z,60.93
2023-01-20T12:58:49.472Z,62.67
2023-01-20T13:01:29.467Z,57.97
2023-01-20T13:04:26.188Z,57.93
2023-01-20T13:07:08.768Z,56.20
2023-01-20T13:09:43.216Z,62.03
2023-01-20T13:12:33.323Z,63.93
2023-01-20T13:15:09.356Z,68.03
2023-01-20T13:17:48.178Z,64.97
2023-01-20T13:20:20.754Z,70.03
2023-01-20T13:22:48.430Z,63.67
2023-01-20T13:25:16.873Z,64.73
2023-01-20T13:27:44.636Z,63.73
2023-01-20T13:30:39.642Z,58.20
2023-01-20T13:33:14.528Z,63.90
2023-01-20T13:35:45.109Z,59.23
2023-01-20T13:38:23.462Z,62.70
2023-01-20T13:40:55.477Z,59.63
2023-01-20T13:43:25.586Z,61.13
2023-01-20T13:46:07.251Z,58.27
2023-01-20T13:48:35.759Z,61.90
2023-01-20T13:51:29.113Z,60.60
2023-01-20T13:54:35.501Z,69.77
2023-01-20T13:57:37.578Z,66.27
2023-01-20T14:00:12.038Z,70.10
2023-01-20T14:02:38.966Z,59.90
2023-01-20T14:05:20.193Z,58.20
2023-01-20T14:07:46.646Z,63.40
2023-01-20T14:10:13.835Z,59.50
2023-01-20T14:12:41.385Z,62.17
2023-01-20T14:15:23.189Z,54.87
2023-01-20T14:17:54.165Z,64.90
2023-01-20T14:20:25.678Z,64.53
2023-01-20T14:22:52.662Z,62.40
2023-01-20T14:25:24.658Z,67.37
2023-01-20T14:27:51.708Z,71.63
2023-01-20T14:30:24.717Z,63.67
2023-01-20T14:32:52.919Z,64.77
2023-01-20T14:35:24.657Z,68.07
2023-01-20T14:37:51.935Z,69.37
2023-01-20T14:40:31.377Z,73.23
2023-01-20T14:43:02.947Z,70.33
2023-01-20T14:45:32.358Z,68.97
2023-01-20T14:48:00.222Z,68.87
2023-01-20T14:50:27.129Z,79.60
2023-01-20T14:52:53.540Z,84.40
2023-01-20T14:55:28.224Z,79.17
2023-01-20T14:57:54.920Z,69.93
2023-01-20T15:00:23.916Z,79.77
2023-01-20T15:03:11.353Z,62.93
2023-01-20T15:05:41.670Z,66.07
2023-01-20T15:08:32.709Z,60.80
2023-01-20T15:11:16.499Z,64.13
2023-01-20T15:13:58.666Z,70.17
2023-01-20T15:16:30.964Z,69.47
2023-01-20T15:19:33.257Z,59.23
2023-01-20T15:22:18.455Z,57.40
2023-01-20T15:24:47.402Z,57.67
2023-01-20T15:27:22.199Z,70.03
2023-01-20T15:30:15.924Z,62.23
2023-01-20T15:32:42.625Z,70.63
2023-01-20T15:35:12.995Z,72.17
2023-01-20T15:37:40.620Z,73.63
2023-01-20T15:40:14.250Z,72.33
2023-01-20T15:42:41.861Z,68.17
2023-01-20T15:45:11.722Z,70.23
2023-01-20T15:47:38.442Z,74.33
2023-01-20T15:50:12.519Z,65.50
2023-01-20T15:52:38.993Z,68.17
2023-01-20T15:55:06.078Z,69.53
2023-01-20T15:57:33.026Z,73.07
2023-01-20T15:59:59.433Z,75.77
2023-01-20T16:02:26.033Z,77.53
2023-01-20T16:04:53.394Z,73.87
2023-01-20T16:07:20.692Z,74.37
2023-01-20T16:09:47.797Z,84.87
2023-01-20T16:12:16.655Z,75.47
2023-01-20T16:14:44.565Z,76.37
2023-01-20T16:17:16.287Z,72.37
2023-01-20T16:19:42.710Z,74.07
2023-01-20T16:22:10.622Z,72.43
2023-01-20T16:24:37.930Z,77.13
2023-01-20T16:27:13.835Z,70.60
2023-01-20T16:29:40.337Z,65.10
2023-01-20T16:32:06.815Z,72.20
2023-01-20T16:34:33.625Z,68.20
2023-01-20T16:37:00.525Z,64.40
2023-01-20T16:39:26.925Z,73.40
2023-01-20T16:41:53.765Z,75.47
2023-01-20T16:44:20.443Z,73.70
2023-01-20T16:46:50.024Z,71.10
2023-01-20T16:49:16.593Z,70.00
2023-01-20T16:51:43.040Z,77.03
2023-01-20T16:54:09.494Z,69.30
2023-01-20T16:56:36.266Z,69.93
2023-01-20T16:59:02.819Z,65.77
2023-01-20T17:01:30.677Z,62.90
2023-01-20T17:03:59.738Z,68.00
2023-01-20T17:06:32.228Z,63.80
2023-01-20T17:09:00.046Z,61.17
2023-01-20T17:11:34.972Z,59.97
2023-01-20T17:14:06.264Z,59.53
2023-01-20T17:16:33.344Z,61.57
2023-01-20T17:19:00.717Z,66.93
2023-01-20T17:21:34.500Z,64.27
2023-01-20T17:24:02.808Z,60.57
2023-01-20T17:26:29.846Z,58.97
2023-01-20T17:28:57.824Z,55.23
2023-01-20T17:31:24.585Z,55.93
2023-01-20T17:33:51.696Z,65.73
2023-01-20T17:38:52.727Z,60.83
2023-01-20T17:42:57.749Z,65.87
2023-01-20T17:45:24.329Z,63.17
2023-01-20T17:47:52.139Z,68.33
2023-01-20T17:50:19.048Z,73.23
2023-01-20T17:52:45.608Z,70.67
2023-01-20T17:55:12.748Z,65.23
2023-01-20T17:57:39.521Z,67.73
2023-01-20T18:00:06.678Z,69.57
2023-01-20T18:02:33.257Z,73.27
2023-01-20T18:05:00.407Z,69.60
2023-01-20T18:07:26.818Z,65.97
2023-01-20T18:09:53.260Z,68.87
2023-01-20T18:12:21.454Z,76.20
2023-01-20T18:14:47.987Z,69.33
2023-01-20T18:17:14.499Z,66.47
2023-01-20T18:19:41.084Z,66.27
2023-01-20T18:22:10.266Z,63.90
2023-01-20T18:24:36.738Z,64.30
2023-01-20T18:27:03.311Z,64.07
2023-01-20T18:29:30.188Z,71.17
2023-01-20T18:31:58.205Z,68.87
2023-01-20T18:34:25.039Z,62.83
2023-01-20T18:36:51.970Z,67.73
2023-01-20T18:39:23.732Z,66.70
2023-01-20T18:41:51.933Z,61.70
2023-01-20T18:44:19.180Z,64.60
2023-01-20T18:46:45.761Z,67.87
2023-01-20T18:49:13.920Z,67.33
2023-01-20T18:51:42.268Z,61.97
2023-01-20T18:54:12.004Z,65.10
2023-01-20T18:56:39.224Z,67.03
2023-01-20T18:59:06.514Z,60.03
2023-01-20T19:01:35.842Z,56.70
2023-01-20T19:04:04.303Z,63.83
2023-01-20T19:06:34.398Z,64.17
2023-01-20T19:09:02.133Z,57.60
2023-01-20T19:11:39.554Z,67.37
2023-01-20T19:14:08.134Z,61.23
2023-01-20T19:16:42.291Z,60.47
2023-01-20T19:19:10.801Z,52.30
2023-01-20T19:21:37.848Z,53.03
2023-01-20T19:24:07.905Z,50.13
2023-01-20T19:26:36.249Z,49.60
2023-01-20T19:29:08.555Z,45.57
2023-01-20T19:31:37.664Z,46.40
2023-01-20T19:34:08.340Z,41.10
2023-01-20T19:36:36.409Z,41.30
2023-01-20T19:39:03.720Z,44.90
2023-01-20T19:41:34.499Z,44.53
2023-01-20T19:44:03.229Z,47.03
2023-01-20T19:46:32.302Z,48.77
2023-01-20T19:48:59.879Z,50.10
2023-01-20T19:51:27.119Z,50.23
2023-01-20T19:53:58.050Z,46.27
2023-01-20T19:56:27.096Z,52.13
2023-01-20T19:58:54.779Z,53.50
2023-01-20T20:01:24.739Z,50.83
2023-01-20T20:03:52.513Z,57.10
2023-01-20T20:06:38.003Z,53.53
2023-01-20T20:09:06.533Z,51.10
2023-01-20T20:11:33.467Z,53.47
2023-01-20T20:14:02.582Z,51.50
2023-01-20T20:16:31.554Z,55.93
2023-01-20T20:18:58.482Z,54.57
2023-01-20T20:21:25.748Z,56.57
2023-01-20T20:23:54.521Z,58.23
2023-01-20T20:26:22.710Z,55.90
2023-01-20T20:28:51.299Z,53.37
2023-01-20T20:31:18.799Z,54.53
2023-01-20T20:33:48.547Z,50.63
2023-01-20T20:36:15.511Z,53.17
2023-01-20T20:38:41.999Z,52.13
2023-01-20T20:41:09.243Z,48.20
2023-01-20T20:43:37.510Z,49.10
2023-01-20T20:46:05.995Z,55.27
2023-01-20T20:48:36.724Z,53.37
2023-01-20T20:51:12.646Z,51.60
2023-01-20T20:53:39.536Z,49.93
2023-01-20T20:56:08.083Z,52.17
2023-01-20T20:58:34.960Z,51.67
2023-01-20T21:01:02.784Z,56.27
2023-01-20T21:03:30.229Z,57.20
2023-01-20T21:05:57.846Z,60.83
2023-01-20T21:08:25.959Z,62.40
2023-01-20T21:10:52.833Z,59.23
2023-01-20T21:13:20.248Z,59.10
2023-01-20T21:16:03.563Z,65.77
2023-01-20T21:18:31.215Z,60.00
2023-01-20T21:20:59.599Z,59.60
2023-01-20T21:23:27.374Z,62.53
2023-01-20T21:25:54.087Z,54.93
2023-01-20T21:28:20.737Z,68.97
2023-01-20T21:30:47.484Z,55.73
2023-01-20T21:33:17.581Z,61.10
2023-01-20T21:35:47.564Z,63.83
2023-01-20T21:38:14.360Z,56.90
2023-01-20T21:40:41.669Z,58.07
2023-01-20T21:43:27.711Z,59.73
2023-01-20T21:45:55.312Z,59.07
2023-01-20T21:48:41.968Z,60.63
2023-01-20T21:51:30.859Z,55.40
2023-01-20T21:53:57.429Z,59.30
2023-01-20T21:56:24.057Z,60.57
2023-01-20T21:58:50.627Z,58.73
2023-01-20T22:01:17.094Z,58.93
2023-01-20T22:03:43.565Z,49.17
2023-01-20T22:06:10.209Z,50.90
2023-01-20T22:08:36.937Z,55.57
2023-01-20T22:11:04.870Z,50.07
2023-01-20T22:13:31.616Z,51.50
2023-01-20T22:16:02.233Z,51.07
2023-01-20T22:18:29.739Z,50.83
2023-01-20T22:21:06.594Z,56.13
2023-01-20T22:23:34.307Z,57.03
2023-01-20T22:26:05.225Z,56.53
2023-01-20T22:28:40.494Z,56.70
2023-01-20T22:31:14.144Z,51.53
2023-01-20T22:33:40.789Z,58.07
2023-01-20T22:36:07.647Z,56.73
2023-01-20T22:38:34.470Z,52.03
2023-01-20T22:41:05.654Z,46.63
2023-01-20T22:43:33.886Z,47.33
2023-01-20T22:46:01.730Z,45.70
2023-01-20T22:48:33.604Z,46.73
2023-01-20T22:51:08.948Z,48.30
2023-01-20T22:53:35.923Z,46.80
2023-01-20T22:56:07.096Z,43.93
2023-01-20T22:58:34.363Z,42.63
2023-01-20T23:01:01.461Z,38.63
2023-01-20T23:03:29.186Z,39.47
2023-01-20T23:05:57.759Z,33.90
2023-01-20T23:08:25.906Z,36.63
2023-01-20T23:10:57.327Z,31.90
2023-01-20T23:13:24.291Z,33.13
2023-01-20T23:15:51.454Z,32.07
2023-01-20T23:18:19.111Z,33.47
2023-01-20T23:20:50.122Z,30.37
2023-01-20T23:23:17.557Z,35.07
2023-01-20T23:25:44.573Z,30.07
2023-01-20T23:28:12.419Z,29.33
2023-01-20T23:30:40.145Z,29.70
2023-01-20T23:33:07.538Z,31.90
2023-01-20T23:35:35.025Z,31.20
2023-01-20T23:38:01.702Z,32.87
2023-01-20T23:40:30.388Z,29.27
2023-01-20T23:42:57.235Z,30.27
2023-01-20T23:45:24.182Z,28.73
2023-01-20T23:47:52.012Z,30.23
2023-01-20T23:50:18.919Z,27.97
2023-01-20T23:52:45.736Z,27.90
2023-01-20T23:55:12.793Z,29.67
2023-01-20T23:57:39.981Z,28.50
